Time;durP1;ratioP1;P1;durP2;ratioP2;P2;SDS_P1;SDS_P2;PMS_P1;PMS_P2;Temp;Humidity;BMP_temperature;BMP_pressure;BME280_temperature;BME280_humidity;BME280_pressure;Samples;Min_cycle;Max_cycle;Signal;HPM_P1;HPM_P2
2023/04/15 00:00:28;;;;;;;6.00;4.63;;;6.60;99.90;;;;;;5093787;27;20182;-82
2023/04/15 00:02:54;;;;;;;6.50;4.75;;;6.50;99.90;;;;;;5111346;27;20082;-83
2023/04/15 00:05:20;;;;;;;7.75;4.75;;;7.00;99.90;;;;;;5109642;27;20043;-83
2023/04/15 00:07:46;;;;;;;7.25;5.07;;;6.50;99.90;;;;;;5110118;27;20073;-83
2023/04/15 00:10:13;;;;;;;6.50;4.88;;;6.40;99.90;;;;;;5108576;27;20055;-83
2023/04/15 00:12:39;;;;;;;8.02;5.43;;;6.40;99.90;;;;;;5109282;27;20051;-83
2023/04/15 00:15:05;;;;;;;6.68;4.85;;;6.30;99.90;;;;;;5110213;28;20043;-83
2023/04/15 00:17:31;;;;;;;6.80;4.72;;;6.30;99.90;;;;;;5110073;27;20104;-83
2023/04/15 00:19:58;;;;;;;7.53;4.70;;;6.30;99.90;;;;;;5109370;28;20047;-82
2023/04/15 00:22:26;;;;;;;6.85;5.32;;;6.20;99.90;;;;;;5110425;28;20051;-83
2023/04/15 00:24:53;;;;;;;11.32;5.38;;;6.20;99.90;;;;;;5092682;28;20059;-83
2023/04/15 00:27:19;;;;;;;9.60;4.97;;;6.20;99.90;;;;;;5106412;28;20052;-83
2023/04/15 00:29:45;;;;;;;12.05;5.95;;;6.20;99.90;;;;;;5110556;28;20111;-83
2023/04/15 00:32:10;;;;;;;9.15;5.65;;;6.20;99.90;;;;;;5110114;28;20115;-83
2023/04/15 00:34:36;;;;;;;10.10;4.85;;;6.20;99.90;;;;;;5108629;28;20154;-82
2023/04/15 00:37:02;;;;;;;8.32;5.55;;;6.20;99.90;;;;;;5128580;28;20055;-83
2023/04/15 00:39:27;;;;;;;9.20;5.22;;;6.10;99.90;;;;;;5108988;28;20106;-83
2023/04/15 00:41:54;;;;;;;8.48;5.70;;;6.20;99.90;;;;;;5127293;28;20110;-83
2023/04/15 00:44:20;;;;;;;7.40;5.20;;;6.10;99.90;;;;;;5127641;28;20100;-84
2023/04/15 00:46:47;;;;;;;8.85;6.38;;;6.10;99.90;;;;;;5110441;28;20043;-83
2023/04/15 00:49:13;;;;;;;9.85;5.57;;;6.10;99.90;;;;;;5109224;28;20399;-83
2023/04/15 00:51:38;;;;;;;5.97;4.97;;;6.00;99.90;;;;;;5108798;28;20039;-83
2023/04/15 00:54:05;;;;;;;9.13;5.75;;;6.00;99.90;;;;;;5108690;28;20092;-83
2023/04/15 00:56:35;;;;;;;8.07;5.72;;;6.00;99.90;;;;;;5123226;28;20111;-83
2023/04/15 00:59:01;;;;;;;9.80;5.47;;;6.00;99.90;;;;;;5127157;28;20088;-83
2023/04/15 01:01:27;;;;;;;7.95;5.88;;;6.00;99.90;;;;;;5108693;28;20493;-83
2023/04/15 01:03:55;;;;;;;9.40;5.72;;;6.00;99.90;;;;;;5108772;28;20112;-84
2023/04/15 01:06:21;;;;;;;14.55;6.38;;;5.90;99.90;;;;;;5109642;28;20470;-83
2023/04/15 01:08:46;;;;;;;7.63;5.85;;;5.90;99.90;;;;;;5098447;28;20048;-83
2023/04/15 01:11:13;;;;;;;7.78;5.88;;;5.80;99.90;;;;;;5089270;28;20411;-84
2023/04/15 01:13:39;;;;;;;7.82;5.75;;;5.70;99.90;;;;;;5072590;28;20059;-84
2023/04/15 01:16:06;;;;;;;6.25;5.50;;;5.70;99.90;;;;;;5088859;28;20040;-84
2023/04/15 01:18:32;;;;;;;7.55;5.93;;;5.70;99.90;;;;;;5091539;28;20055;-84
2023/04/15 01:21:01;;;;;;;8.02;5.60;;;5.60;99.90;;;;;;5110227;27;20111;-84
2023/04/15 01:23:26;;;;;;;8.80;5.90;;;5.60;99.90;;;;;;5131829;27;20565;-84
2023/04/15 01:25:52;;;;;;;6.97;5.70;;;5.50;99.90;;;;;;5099166;28;20046;-84
2023/04/15 01:28:19;;;;;;;7.78;5.32;;;5.50;99.90;;;;;;5092210;28;20087;-84
2023/04/15 01:30:44;;;;;;;9.38;6.68;;;5.50;99.90;;;;;;5093059;28;20052;-84
2023/04/15 01:33:14;;;;;;;9.43;6.25;;;5.40;99.90;;;;;;5092656;28;20097;-84
2023/04/15 01:35:43;;;;;;;8.27;6.63;;;5.40;99.90;;;;;;5130110;27;20147;-84
2023/04/15 01:38:10;;;;;;;7.47;5.45;;;5.30;99.90;;;;;;5110830;27;20254;-84
2023/04/15 01:40:36;;;;;;;9.07;6.30;;;5.30;99.90;;;;;;5093873;27;20047;-84
2023/04/15 01:43:02;;;;;;;12.25;6.75;;;5.30;99.90;;;;;;5094148;27;20050;-84
2023/04/15 01:45:28;;;;;;;10.73;6.53;;;6.10;99.90;;;;;;5113322;27;20039;-84
2023/04/15 01:47:54;;;;;;;10.18;6.43;;;5.30;99.90;;;;;;5112476;27;20134;-84
2023/04/15 01:50:20;;;;;;;15.68;7.32;;;5.30;99.90;;;;;;5095336;27;20974;-84
2023/04/15 01:52:47;;;;;;;10.18;6.75;;;5.30;99.90;;;;;;5093964;27;20457;-84
2023/04/15 01:55:13;;;;;;;9.85;6.95;;;5.30;99.90;;;;;;5108908;27;20047;-84
2023/04/15 01:57:39;;;;;;;11.60;7.00;;;5.30;99.90;;;;;;5112119;27;20098;-84
2023/04/15 02:00:08;;;;;;;11.10;6.65;;;5.30;99.90;;;;;;5111933;27;20047;-84
2023/04/15 02:02:34;;;;;;;11.20;7.13;;;5.30;99.90;;;;;;5111273;27;20049;-84
2023/04/15 02:05:00;;;;;;;10.13;7.03;;;5.30;99.90;;;;;;5111580;27;20043;-84
2023/04/15 02:07:27;;;;;;;9.63;7.45;;;5.30;99.90;;;;;;5083460;27;20050;-84
2023/04/15 02:09:53;;;;;;;9.57;7.28;;;5.30;99.90;;;;;;5092024;28;20171;-84
2023/04/15 02:12:18;;;;;;;12.10;7.53;;;5.30;99.90;;;;;;5110078;27;20086;-84
2023/04/15 02:14:44;;;;;;;10.55;7.72;;;5.00;99.90;;;;;;5111455;27;20035;-84
2023/04/15 02:17:10;;;;;;;8.70;7.35;;;5.20;99.90;;;;;;5111893;27;20084;-84
2023/04/15 02:19:36;;;;;;;11.30;7.72;;;5.20;99.90;;;;;;5112128;27;20687;-84
2023/04/15 02:22:02;;;;;;;12.48;7.28;;;5.20;99.90;;;;;;5076644;27;20051;-84
2023/04/15 02:24:29;;;;;;;10.80;7.20;;;5.20;99.90;;;;;;5111599;27;20097;-84
2023/04/15 02:26:55;;;;;;;11.75;7.82;;;5.10;99.90;;;;;;5111189;27;20104;-84
2023/04/15 02:29:22;;;;;;;11.48;8.05;;;5.20;99.90;;;;;;5112188;27;20075;-84
2023/04/15 02:31:48;;;;;;;12.60;7.90;;;5.10;99.90;;;;;;5112300;27;20054;-84
2023/04/15 02:34:14;;;;;;;10.60;8.07;;;5.10;99.90;;;;;;5102866;28;20051;-84
2023/04/15 02:36:39;;;;;;;13.45;8.40;;;5.10;99.90;;;;;;5103262;27;20047;-83
2023/04/15 02:39:05;;;;;;;9.50;7.60;;;5.10;99.90;;;;;;5092298;28;20147;-83
2023/04/15 02:41:31;;;;;;;10.77;7.78;;;5.10;99.90;;;;;;5092204;27;20051;-83
2023/04/15 02:43:57;;;;;;;13.00;8.40;;;5.00;99.90;;;;;;5104369;28;20040;-82
2023/04/15 02:46:23;;;;;;;12.43;9.00;;;5.00;99.90;;;;;;5085172;27;20046;-83
2023/04/15 02:48:49;;;;;;;14.60;8.90;;;5.00;99.90;;;;;;5108353;27;20045;-84
2023/04/15 02:51:20;;;;;;;13.35;9.43;;;5.00;99.90;;;;;;5111490;27;20750;-83
2023/04/15 02:53:49;;;;;;;14.15;8.88;;;4.90;99.90;;;;;;5111496;27;20054;-83
2023/04/15 02:56:16;;;;;;;11.52;7.85;;;4.90;99.90;;;;;;5111516;27;20054;-83
2023/04/15 02:58:43;;;;;;;12.57;8.43;;;4.90;99.90;;;;;;5110052;27;20112;-83
2023/04/15 03:01:09;;;;;;;12.65;8.48;;;4.90;99.90;;;;;;5110494;27;20532;-83
2023/04/15 03:03:35;;;;;;;11.75;9.25;;;4.90;99.90;;;;;;5095600;28;20173;-82
2023/04/15 03:06:00;;;;;;;14.07;9.25;;;4.80;99.90;;;;;;5098480;27;20043;-82
2023/04/15 03:08:26;;;;;;;11.93;9.10;;;4.90;99.90;;;;;;5111383;27;20050;-83
2023/04/15 03:10:52;;;;;;;11.93;8.85;;;5.30;99.90;;;;;;5111484;27;20493;-82
2023/04/15 03:13:19;;;;;;;14.27;9.93;;;4.80;99.90;;;;;;5111888;27;20047;-83
2023/04/15 03:15:46;;;;;;;12.55;8.80;;;4.80;99.90;;;;;;5111030;27;20066;-83
2023/04/15 03:18:12;;;;;;;13.82;9.88;;;4.70;99.90;;;;;;5104895;27;20450;-83
2023/04/15 03:20:37;;;;;;;12.65;9.05;;;4.80;99.90;;;;;;5093794;27;20137;-83
2023/04/15 03:23:03;;;;;;;13.20;8.98;;;4.70;99.90;;;;;;5104126;28;20066;-83
2023/04/15 03:25:28;;;;;;;12.70;9.82;;;4.70;99.90;;;;;;5100292;27;20472;-83
2023/04/15 03:27:54;;;;;;;14.63;9.40;;;4.80;99.90;;;;;;5110093;27;20131;-83
2023/04/15 03:30:19;;;;;;;13.30;9.13;;;4.70;99.90;;;;;;5090353;27;20402;-83
2023/04/15 03:32:45;;;;;;;16.30;9.32;;;4.70;99.90;;;;;;5109698;27;20142;-83
2023/04/15 03:35:11;;;;;;;12.30;9.50;;;4.70;99.90;;;;;;5074915;27;20507;-83
2023/04/15 03:37:36;;;;;;;12.55;8.35;;;4.70;99.90;;;;;;5092912;27;20058;-82
2023/04/15 03:40:02;;;;;;;15.27;9.85;;;4.70;99.90;;;;;;5093843;27;20057;-82
2023/04/15 03:42:28;;;;;;;14.63;9.75;;;4.60;99.90;;;;;;5110560;27;20047;-82
2023/04/15 03:44:53;;;;;;;13.55;9.35;;;4.60;99.90;;;;;;5110205;27;20057;-83
2023/04/15 03:47:19;;;;;;;16.63;9.48;;;4.60;99.90;;;;;;5106972;27;20043;-82
2023/04/15 03:49:45;;;;;;;14.95;9.90;;;4.50;99.90;;;;;;5111075;27;20051;-82
2023/04/15 03:52:10;;;;;;;15.27;9.15;;;4.50;99.90;;;;;;5129154;27;20045;-82
2023/04/15 03:54:37;;;;;;;15.02;9.35;;;4.50;99.90;;;;;;5110521;27;20058;-84
2023/04/15 03:57:02;;;;;;;15.57;8.75;;;4.50;99.90;;;;;;5129630;27;20067;-83
2023/04/15 03:59:28;;;;;;;13.88;9.40;;;4.40;99.90;;;;;;5128914;27;20085;-83
2023/04/15 04:01:53;;;;;;;13.00;9.25;;;4.40;99.90;;;;;;5113795;27;20073;-83
2023/04/15 04:04:19;;;;;;;14.02;8.77;;;4.40;99.90;;;;;;5089933;28;20183;-83
2023/04/15 04:06:45;;;;;;;14.25;9.23;;;4.40;99.90;;;;;;5077639;27;20039;-83
2023/04/15 04:09:11;;;;;;;14.38;9.45;;;4.40;99.90;;;;;;5110025;27;20039;-83
2023/04/15 04:11:39;;;;;;;14.20;8.93;;;4.70;99.90;;;;;;5093255;27;20039;-83
2023/04/15 04:14:05;;;;;;;15.10;9.57;;;4.40;99.90;;;;;;5090943;28;20054;-83
2023/04/15 04:16:31;;;;;;;13.05;8.70;;;4.30;99.90;;;;;;5110770;28;20066;-83
2023/04/15 04:18:56;;;;;;;13.55;8.80;;;4.30;99.90;;;;;;5109656;27;20071;-83
2023/04/15 04:21:22;;;;;;;15.93;9.60;;;4.20;99.90;;;;;;5110494;27;20122;-83
2023/04/15 04:23:47;;;;;;;13.20;8.73;;;4.60;99.90;;;;;;5110336;28;20095;-83
2023/04/15 04:26:13;;;;;;;14.50;9.07;;;4.20;99.90;;;;;;5110625;28;20046;-83
2023/04/15 04:28:39;;;;;;;13.82;9.00;;;4.10;99.90;;;;;;5097453;28;20047;-83
2023/04/15 04:31:06;;;;;;;13.52;9.23;;;4.00;99.90;;;;;;5100255;28;20046;-83
2023/04/15 04:33:32;;;;;;;13.85;8.57;;;4.00;99.90;;;;;;5109732;28;20135;-83
2023/04/15 04:36:00;;;;;;;12.80;8.50;;;4.00;99.90;;;;;;5108188;28;20071;-82
2023/04/15 04:38:26;;;;;;;17.10;9.63;;;4.00;99.90;;;;;;5108159;28;20092;-83
2023/04/15 04:40:51;;;;;;;11.80;8.10;;;3.90;99.90;;;;;;5109828;28;20051;-82
2023/04/15 04:43:17;;;;;;;12.48;8.40;;;3.90;99.90;;;;;;5127136;27;20400;-83
2023/04/15 04:45:43;;;;;;;11.68;8.27;;;3.90;99.90;;;;;;5127524;27;20055;-83
2023/04/15 04:48:09;;;;;;;11.82;7.97;;;3.80;99.90;;;;;;5109210;28;20086;-83
2023/04/15 04:50:35;;;;;;;13.38;8.95;;;3.90;99.90;;;;;;5109845;28;20055;-83
2023/04/15 04:53:01;;;;;;;12.23;8.80;;;3.80;99.90;;;;;;5109273;28;20046;-83
2023/04/15 04:55:29;;;;;;;14.90;8.73;;;3.80;99.90;;;;;;5089476;28;20047;-83
2023/04/15 04:57:54;;;;;;;16.15;8.82;;;3.80;99.90;;;;;;5117491;27;20047;-83
2023/04/15 05:00:20;;;;;;;15.80;9.43;;;3.80;99.90;;;;;;5094138;28;20104;-83
2023/04/15 05:02:46;;;;;;;16.63;9.50;;;3.80;99.90;;;;;;5093159;28;20048;-83
2023/04/15 05:05:12;;;;;;;14.75;9.10;;;3.80;99.90;;;;;;5111854;27;20075;-83
2023/04/15 05:07:38;;;;;;;14.32;9.40;;;3.80;99.90;;;;;;5131644;27;20051;-83
2023/04/15 05:10:05;;;;;;;14.85;9.23;;;3.80;99.90;;;;;;5132091;27;20035;-83
2023/04/15 05:12:31;;;;;;;14.13;9.70;;;3.80;99.90;;;;;;5096177;27;20058;-83
2023/04/15 05:14:56;;;;;;;16.30;9.30;;;3.90;99.90;;;;;;5094426;27;20086;-83
2023/04/15 05:17:22;;;;;;;14.05;9.65;;;3.90;99.90;;;;;;5113056;27;20074;-84
2023/04/15 05:19:47;;;;;;;15.88;9.43;;;3.90;99.90;;;;;;5114443;27;20064;-84
2023/04/15 05:22:13;;;;;;;15.13;9.75;;;4.00;99.90;;;;;;5112390;27;20039;-83
2023/04/15 05:24:39;;;;;;;16.67;10.30;;;4.00;99.90;;;;;;5111798;27;20084;-83
2023/04/15 05:27:05;;;;;;;15.27;10.45;;;4.00;99.90;;;;;;5110822;28;20055;-84
2023/04/15 05:29:30;;;;;;;17.15;10.55;;;4.10;99.90;;;;;;5109572;28;20079;-83
2023/04/15 05:31:56;;;;;;;17.55;10.55;;;4.10;99.90;;;;;;5111326;27;20066;-83
2023/04/15 05:34:22;;;;;;;16.88;10.30;;;4.20;99.90;;;;;;5112395;27;20067;-84
2023/04/15 05:36:47;;;;;;;15.70;10.15;;;4.30;99.90;;;;;;5088505;27;20371;-83
2023/04/15 05:39:13;;;;;;;16.52;10.75;;;4.40;99.90;;;;;;5113308;27;20195;-82
2023/04/15 05:41:38;;;;;;;19.08;10.82;;;4.50;99.90;;;;;;5132038;27;20096;-83
2023/04/15 05:44:05;;;;;;;19.30;11.82;;;4.60;99.90;;;;;;5112837;27;20525;-83
2023/04/15 05:46:30;;;;;;;16.63;11.23;;;4.70;99.90;;;;;;5112265;27;20038;-83
2023/04/15 05:48:56;;;;;;;19.50;10.98;;;4.80;99.90;;;;;;5110950;27;20046;-82
2023/04/15 05:51:21;;;;;;;17.10;10.82;;;5.00;99.90;;;;;;5130999;27;20401;-83
2023/04/15 05:53:47;;;;;;;18.85;11.43;;;5.20;99.90;;;;;;5113129;27;20054;-83
2023/04/15 05:56:12;;;;;;;21.77;11.00;;;5.30;99.90;;;;;;5096057;27;20051;-82
2023/04/15 05:58:38;;;;;;;16.00;11.13;;;5.30;99.90;;;;;;5112625;27;20039;-82
2023/04/15 06:01:04;;;;;;;18.45;12.15;;;5.30;99.90;;;;;;5111991;27;20497;-83
2023/04/15 06:03:30;;;;;;;18.23;12.25;;;5.40;99.90;;;;;;5109211;27;20043;-82
2023/04/15 06:05:55;;;;;;;15.38;10.60;;;5.40;99.90;;;;;;5112983;27;20049;-83
2023/04/15 06:08:21;;;;;;;16.92;11.43;;;5.40;99.90;;;;;;5112197;27;20107;-83
2023/04/15 06:10:47;;;;;;;15.93;11.18;;;5.50;99.90;;;;;;5110906;27;20054;-84
2023/04/15 06:13:12;;;;;;;17.92;10.98;;;5.60;99.90;;;;;;5111361;27;20051;-82
2023/04/15 06:15:38;;;;;;;16.20;10.90;;;5.70;99.90;;;;;;5112549;27;20448;-83
2023/04/15 06:18:04;;;;;;;14.73;10.85;;;5.70;99.90;;;;;;5131168;27;20035;-83
2023/04/15 06:20:29;;;;;;;16.80;11.50;;;5.80;99.90;;;;;;5112156;27;20055;-83
2023/04/15 06:22:56;;;;;;;17.73;11.00;;;5.90;99.90;;;;;;5130587;27;20094;-83
2023/04/15 06:25:21;;;;;;;17.10;11.73;;;6.10;99.90;;;;;;5110979;27;20083;-83
2023/04/15 06:27:47;;;;;;;15.20;11.32;;;6.20;99.90;;;;;;5091221;27;20071;-83
2023/04/15 06:30:13;;;;;;;16.45;11.45;;;6.30;99.90;;;;;;5095711;27;20573;-82
2023/04/15 06:32:39;;;;;;;16.35;11.18;;;6.50;99.90;;;;;;5112745;27;20035;-83
2023/04/15 06:35:05;;;;;;;15.10;11.00;;;6.60;99.90;;;;;;5111566;27;20059;-83
2023/04/15 06:37:31;;;;;;;16.38;11.18;;;6.70;99.90;;;;;;5093910;27;20446;-83
2023/04/15 06:39:57;;;;;;;16.33;10.98;;;6.80;99.90;;;;;;5111433;27;20042;-82
2023/04/15 06:42:23;;;;;;;16.88;12.20;;;6.90;99.90;;;;;;5110506;27;20035;-83
2023/04/15 06:44:49;;;;;;;15.57;11.75;;;7.00;99.90;;;;;;5109059;27;20039;-83
2023/04/15 06:47:14;;;;;;;15.10;11.68;;;7.40;99.90;;;;;;5129424;27;20054;-82
2023/04/15 06:49:41;;;;;;;17.42;11.65;;;7.10;99.90;;;;;;5111253;27;20125;-82
2023/04/15 06:52:07;;;;;;;15.77;10.73;;;7.20;99.90;;;;;;5110632;27;20135;-83
2023/04/15 06:54:33;;;;;;;14.98;11.10;;;7.30;99.90;;;;;;5128842;27;20133;-84
2023/04/15 06:56:59;;;;;;;16.13;11.13;;;7.70;99.90;;;;;;5110246;27;20051;-82
2023/04/15 06:59:26;;;;;;;15.90;10.70;;;7.40;99.90;;;;;;5092702;27;20043;-83
2023/04/15 07:01:51;;;;;;;14.70;11.40;;;7.40;99.90;;;;;;5092891;27;20051;-81
2023/04/15 07:04:17;;;;;;;15.15;10.70;;;7.50;99.90;;;;;;5109485;27;20103;-81
2023/04/15 07:06:43;;;;;;;15.75;11.32;;;7.50;99.90;;;;;;5129893;27;20038;-82
2023/04/15 07:09:09;;;;;;;15.35;10.48;;;7.60;99.90;;;;;;5129726;27;20098;-82
2023/04/15 07:11:35;;;;;;;15.63;10.57;;;7.70;99.90;;;;;;5110866;27;20047;-82
2023/04/15 07:14:01;;;;;;;14.32;10.60;;;7.40;99.90;;;;;;5084240;28;20048;-82
2023/04/15 07:16:27;;;;;;;14.18;10.30;;;7.90;99.90;;;;;;5101229;27;20062;-82
2023/04/15 07:18:52;;;;;;;15.10;10.55;;;8.00;99.90;;;;;;5109249;27;20037;-82
2023/04/15 07:21:18;;;;;;;12.88;10.23;;;8.00;99.90;;;;;;5128027;27;20047;-82
2023/04/15 07:23:44;;;;;;;14.45;10.50;;;8.10;99.90;;;;;;5110027;27;20388;-82
2023/04/15 07:26:10;;;;;;;13.57;9.18;;;8.20;99.90;;;;;;5128277;27;20050;-82
2023/04/15 07:28:35;;;;;;;13.57;9.73;;;8.20;99.90;;;;;;5127401;27;20162;-83
2023/04/15 07:31:01;;;;;;;12.73;9.00;;;8.30;99.90;;;;;;5129378;27;20046;-83
2023/04/15 07:33:26;;;;;;;14.85;9.52;;;8.40;99.90;;;;;;5112190;27;20054;-82
2023/04/15 07:35:52;;;;;;;14.48;9.63;;;8.40;99.90;;;;;;5110992;27;20051;-82
2023/04/15 07:38:18;;;;;;;13.75;9.52;;;8.40;99.90;;;;;;5129182;27;20063;-83
2023/04/15 07:40:43;;;;;;;11.52;9.32;;;8.50;99.90;;;;;;5110979;27;20047;-82
2023/04/15 07:43:09;;;;;;;13.60;8.48;;;8.60;99.90;;;;;;5110135;27;20054;-82
2023/04/15 07:45:35;;;;;;;11.30;8.90;;;8.70;99.90;;;;;;5109735;27;20039;-83
2023/04/15 07:48:01;;;;;;;10.13;8.18;;;8.80;99.90;;;;;;5110141;27;20411;-83
2023/04/15 07:50:27;;;;;;;10.70;7.90;;;8.90;99.90;;;;;;5110692;27;20046;-83
2023/04/15 07:52:53;;;;;;;10.38;8.18;;;8.90;99.90;;;;;;5110823;27;20039;-83
2023/04/15 07:55:21;;;;;;;10.05;7.43;;;9.10;99.90;;;;;;5110791;27;20048;-84
2023/04/15 07:57:47;;;;;;;9.23;7.30;;;9.20;99.90;;;;;;5109563;27;20061;-83
2023/04/15 08:00:15;;;;;;;8.98;7.18;;;9.30;99.90;;;;;;5106663;27;20111;-84
2023/04/15 08:02:42;;;;;;;10.15;7.05;;;9.40;99.90;;;;;;5110084;27;20130;-83
2023/04/15 08:05:08;;;;;;;10.07;6.70;;;9.50;99.90;;;;;;5098701;28;20074;-83
2023/04/15 08:07:35;;;;;;;7.57;5.65;;;9.60;99.90;;;;;;5105571;27;20043;-84
2023/04/15 08:10:01;;;;;;;8.43;5.68;;;9.70;99.90;;;;;;5106497;28;20589;-83
2023/04/15 08:12:27;;;;;;;12.55;5.60;;;9.70;99.90;;;;;;5095855;28;20203;-83
2023/04/15 08:14:53;;;;;;;6.65;5.80;;;9.70;99.90;;;;;;5093161;27;20400;-83
2023/04/15 08:17:19;;;;;;;8.75;5.97;;;9.70;99.90;;;;;;5110985;27;20043;-83
2023/04/15 08:19:47;;;;;;;8.05;4.85;;;10.00;99.90;;;;;;5108931;27;20050;-82
2023/04/15 08:22:12;;;;;;;7.07;4.80;;;9.70;99.90;;;;;;5106403;27;20043;-83
2023/04/15 08:24:38;;;;;;;7.93;4.93;;;9.80;99.90;;;;;;5109675;28;20038;-82
2023/04/15 08:27:07;;;;;;;7.63;4.82;;;9.90;99.90;;;;;;5108715;28;20095;-82
2023/04/15 08:29:33;;;;;;;7.47;4.82;;;9.90;99.90;;;;;;5090673;28;20110;-81
2023/04/15 08:32:03;;;;;;;5.78;4.60;;;9.80;99.90;;;;;;5100383;27;20463;-82
2023/04/15 08:34:31;;;;;;;7.85;5.00;;;9.80;99.90;;;;;;5133352;27;20039;-82
2023/04/15 08:36:56;;;;;;;7.90;4.90;;;9.90;99.90;;;;;;5097558;27;20049;-82
2023/04/15 08:39:22;;;;;;;10.00;4.95;;;9.90;99.90;;;;;;5132197;27;20396;-83
2023/04/15 08:41:55;;;;;;;7.63;4.93;;;9.90;99.90;;;;;;5114417;27;20047;-83
2023/04/15 08:44:24;;;;;;;5.82;3.88;;;9.90;99.90;;;;;;5094831;27;20055;-83
2023/04/15 08:46:51;;;;;;;4.38;3.65;;;9.90;99.90;;;;;;5097782;27;20054;-84
2023/04/15 08:49:20;;;;;;;7.90;4.05;;;9.90;99.90;;;;;;5111435;27;20047;-84
2023/04/15 08:51:46;;;;;;;5.15;3.78;;;10.00;99.90;;;;;;5129240;27;20468;-84
2023/04/15 08:54:12;;;;;;;6.47;3.92;;;10.00;99.90;;;;;;5111520;27;20700;-84
2023/04/15 08:56:38;;;;;;;4.55;3.97;;;9.90;99.90;;;;;;5112889;27;20043;-84
2023/04/15 08:59:05;;;;;;;6.85;4.00;;;9.80;99.90;;;;;;5111972;27;20036;-83
2023/04/15 09:01:31;;;;;;;5.72;4.47;;;9.40;99.90;;;;;;5107894;28;20047;-82
2023/04/15 09:03:58;;;;;;;5.70;4.10;;;9.70;99.90;;;;;;5126746;27;20054;-83
2023/04/15 09:06:24;;;;;;;8.73;5.18;;;9.70;99.90;;;;;;5112229;27;20051;-83
2023/04/15 09:08:50;;;;;;;4.63;4.10;;;9.70;99.90;;;;;;5113199;27;20039;-84
2023/04/15 09:11:16;;;;;;;4.68;3.80;;;10.40;99.90;;;;;;5113806;27;20127;-83
2023/04/15 09:13:42;;;;;;;3.72;3.20;;;9.60;99.90;;;;;;5112866;27;20039;-83
2023/04/15 09:16:09;;;;;;;5.00;3.38;;;9.70;99.90;;;;;;5092947;28;20051;-83
2023/04/15 09:18:36;;;;;;;5.30;3.20;;;9.70;99.90;;;;;;5093290;27;20050;-83
2023/04/15 09:21:13;;;;;;;5.03;3.17;;;9.60;99.90;;;;;;5093086;28;20142;-83
2023/04/15 09:23:52;;;;;;;3.72;3.33;;;9.60;99.90;;;;;;5092965;28;20432;-82
2023/04/15 09:26:18;;;;;;;6.50;3.92;;;9.70;99.90;;;;;;5093562;28;20058;-84
2023/04/15 09:28:43;;;;;;;5.20;3.17;;;9.80;99.90;;;;;;5110962;28;20040;-83
2023/04/15 09:31:09;;;;;;;6.95;3.45;;;9.80;99.90;;;;;;5111645;28;20040;-83
2023/04/15 09:33:52;;;;;;;6.93;3.75;;;9.80;99.90;;;;;;5079370;27;20144;-83
2023/04/15 09:36:18;;;;;;;8.75;3.88;;;9.70;99.90;;;;;;5112484;27;20055;-83
2023/04/15 09:38:59;;;;;;;6.22;3.70;;;9.60;99.90;;;;;;5107546;28;20486;-84
2023/04/15 09:41:26;;;;;;;6.43;5.05;;;9.50;99.90;;;;;;5092888;28;20194;-83
2023/04/15 09:43:51;;;;;;;6.18;3.75;;;9.40;99.90;;;;;;5111083;28;20039;-83
2023/04/15 09:46:17;;;;;;;6.95;3.65;;;9.40;99.90;;;;;;5111015;28;20104;-83
2023/04/15 09:48:43;;;;;;;3.95;2.50;;;9.50;99.90;;;;;;5092653;28;20092;-83
2023/04/15 09:51:08;;;;;;;5.78;2.88;;;9.60;99.90;;;;;;5111236;28;20036;-82
2023/04/15 09:53:35;;;;;;;2.70;2.50;;;9.80;99.90;;;;;;5081847;27;20428;-83
2023/04/15 09:56:02;;;;;;;2.10;1.90;;;9.90;99.90;;;;;;5130547;27;20092;-83
2023/04/15 09:58:30;;;;;;;2.10;1.90;;;10.00;99.90;;;;;;5111967;27;20579;-83
2023/04/15 10:00:57;;;;;;;1.98;1.60;;;10.10;99.90;;;;;;5112143;27;20126;-83
2023/04/15 10:03:25;;;;;;;2.80;2.35;;;10.10;99.90;;;;;;5127402;27;20035;-82
2023/04/15 10:05:53;;;;;;;2.92;1.65;;;10.10;99.90;;;;;;5130818;27;20143;-82
2023/04/15 10:08:20;;;;;;;2.35;1.80;;;10.10;99.90;;;;;;5095968;27;20055;-82
2023/04/15 10:10:47;;;;;;;2.20;1.95;;;10.00;99.90;;;;;;5113475;27;20428;-82
2023/04/15 10:13:28;;;;;;;3.25;1.50;;;10.00;99.90;;;;;;5113103;27;20085;-84
2023/04/15 10:15:58;;;;;;;2.20;1.80;;;10.00;99.90;;;;;;5113286;27;20054;-81
2023/04/15 10:18:27;;;;;;;;;;;10.10;99.90;;;;;;5111676;27;20043;-82
2023/04/15 10:20:54;;;;;;;2.20;1.65;;;10.10;99.90;;;;;;5111708;27;19921;-82
2023/04/15 10:23:21;;;;;;;2.03;1.70;;;10.10;99.90;;;;;;5111979;27;20039;-83
2023/04/15 10:25:48;;;;;;;2.00;1.83;;;10.10;99.90;;;;;;5113423;27;20047;-82
2023/04/15 10:28:15;;;;;;;2.17;1.83;;;10.10;99.90;;;;;;5112258;27;20176;-83
2023/04/15 10:30:42;;;;;;;2.25;1.80;;;10.20;99.90;;;;;;5112282;27;20046;-82
2023/04/15 10:33:08;;;;;;;2.40;1.63;;;10.60;99.90;;;;;;5130874;27;20531;-82
2023/04/15 10:35:35;;;;;;;2.00;1.60;;;10.20;99.90;;;;;;5111596;27;20050;-82
2023/04/15 10:38:01;;;;;;;2.20;1.95;;;10.20;99.90;;;;;;5111225;27;20054;-82
2023/04/15 10:40:30;;;;;;;2.03;1.80;;;10.20;99.90;;;;;;5094699;27;20039;-82
2023/04/15 10:43:01;;;;;;;1.98;1.77;;;10.30;99.90;;;;;;5112933;27;20067;-81
2023/04/15 10:45:31;;;;;;;1.95;1.70;;;10.30;99.90;;;;;;5130267;27;20095;-82
2023/04/15 10:48:00;;;;;;;2.45;1.50;;;10.40;99.90;;;;;;5093534;27;20775;-82
2023/04/15 10:50:28;;;;;;;1.85;1.73;;;10.40;99.90;;;;;;5129944;27;20412;-83
2023/04/15 10:52:55;;;;;;;2.97;1.83;;;10.40;99.90;;;;;;5111572;27;20050;-83
2023/04/15 10:55:23;;;;;;;1.60;1.40;;;10.40;99.90;;;;;;5107382;27;20489;-83
2023/04/15 10:57:53;;;;;;;1.73;1.63;;;10.30;99.90;;;;;;5109144;27;20073;-84
2023/04/15 11:00:23;;;;;;;3.03;2.05;;;10.20;99.90;;;;;;5101776;28;20046;-82
2023/04/15 11:02:52;;;;;;;1.88;1.40;;;10.20;99.90;;;;;;5107023;27;20449;-83
2023/04/15 11:05:19;;;;;;;2.22;1.80;;;10.20;99.90;;;;;;5091746;28;20047;-82
2023/04/15 11:07:50;;;;;;;2.63;1.70;;;10.20;99.90;;;;;;5093686;27;20043;-83
2023/04/15 11:10:25;;;;;;;3.45;1.70;;;10.30;99.90;;;;;;5102801;28;20051;-81
2023/04/15 11:13:01;;;;;;;3.08;1.90;;;10.20;99.90;;;;;;5103457;27;20043;-84
2023/04/15 11:15:43;;;;;;;3.28;1.83;;;10.30;99.90;;;;;;5094206;27;20050;-85
2023/04/15 11:18:13;;;;;;;2.30;2.05;;;10.40;99.90;;;;;;5111235;27;20046;-83
2023/04/15 11:20:41;;;;;;;3.38;1.73;;;10.40;99.90;;;;;;5109211;28;20051;-84
2023/04/15 11:23:08;;;;;;;2.53;1.63;;;10.60;99.90;;;;;;5109552;27;20410;-85
2023/04/15 11:25:36;;;;;;;3.35;2.10;;;10.40;99.90;;;;;;5104960;27;20044;-84
2023/04/15 11:28:02;;;;;;;2.05;1.65;;;10.30;99.90;;;;;;5128971;27;20051;-83
2023/04/15 11:30:34;;;;;;;2.53;1.70;;;10.30;99.90;;;;;;5091252;27;20039;-84
2023/04/15 11:33:04;;;;;;;3.47;1.60;;;10.30;99.90;;;;;;5129639;27;20036;-85
2023/04/15 11:35:31;;;;;;;3.28;1.85;;;10.30;99.90;;;;;;5106539;28;20782;-84
2023/04/15 11:37:57;;;;;;;2.47;1.90;;;10.30;99.90;;;;;;5089401;28;20094;-84
2023/04/15 11:40:28;;;;;;;4.55;2.13;;;10.20;99.90;;;;;;5090814;28;20054;-83
2023/04/15 11:43:14;;;;;;;4.13;1.90;;;10.20;99.90;;;;;;5108632;28;20066;-85
2023/04/15 11:45:52;;;;;;;2.92;1.95;;;10.30;99.90;;;;;;5101750;27;20059;-84
2023/04/15 11:48:18;;;;;;;2.55;1.88;;;10.30;99.90;;;;;;5110083;27;20055;-84
2023/04/15 11:50:44;;;;;;;5.57;2.28;;;9.90;99.90;;;;;;5110956;27;20404;-84
2023/04/15 11:53:12;;;;;;;5.10;2.28;;;10.40;99.90;;;;;;5111068;27;20035;-84
2023/04/15 11:55:49;;;;;;;4.00;2.13;;;10.50;99.90;;;;;;5109531;27;20035;-83
2023/04/15 11:58:21;;;;;;;4.53;2.35;;;10.50;99.90;;;;;;5110117;27;20515;-83
2023/04/15 12:00:52;;;;;;;4.65;2.17;;;10.50;99.90;;;;;;5108945;27;20043;-84
2023/04/15 12:03:22;;;;;;;4.13;2.30;;;10.40;99.90;;;;;;5128707;27;20050;-83
2023/04/15 12:06:15;;;;;;;4.43;2.38;;;10.40;99.90;;;;;;5128940;27;20281;-83
2023/04/15 12:08:47;;;;;;;4.00;2.17;;;10.40;99.90;;;;;;5128117;27;20062;-83
2023/04/15 12:11:17;;;;;;;3.92;1.67;;;10.40;99.90;;;;;;5102639;28;20055;-84
2023/04/15 12:13:44;;;;;;;3.35;2.17;;;10.40;99.90;;;;;;5124601;27;20039;-84
2023/04/15 12:16:10;;;;;;;3.97;1.90;;;10.30;99.90;;;;;;5108030;28;20059;-83
2023/04/15 12:18:39;;;;;;;7.40;2.20;;;10.40;99.90;;;;;;5125428;27;20404;-84
2023/04/15 12:21:12;;;;;;;7.95;2.58;;;10.30;99.90;;;;;;5106053;28;20039;-85
2023/04/15 12:23:46;;;;;;;3.15;1.75;;;10.20;99.90;;;;;;5108121;27;20078;-84
2023/04/15 12:26:12;;;;;;;5.93;2.10;;;10.30;99.90;;;;;;5109870;28;20552;-84
2023/04/15 12:28:41;;;;;;;4.75;1.88;;;10.40;99.90;;;;;;5109766;28;20043;-84
2023/04/15 12:31:10;;;;;;;2.60;2.00;;;10.40;99.90;;;;;;5092904;28;20043;-84
2023/04/15 12:33:36;;;;;;;3.60;1.58;;;10.50;99.90;;;;;;5109924;28;20446;-84
2023/04/15 12:36:02;;;;;;;3.85;1.60;;;10.50;99.90;;;;;;5109017;28;20084;-84
2023/04/15 12:38:30;;;;;;;4.00;1.70;;;10.50;99.90;;;;;;5110012;28;20058;-84
2023/04/15 12:40:55;;;;;;;4.53;1.95;;;10.80;99.90;;;;;;5105759;28;20058;-84
2023/04/15 12:43:21;;;;;;;2.83;2.10;;;10.40;99.90;;;;;;5089056;28;20040;-84
2023/04/15 12:45:47;;;;;;;7.68;2.10;;;10.30;99.90;;;;;;5089664;28;20410;-84